Time;durP1;ratioP1;P1;durP2;ratioP2;P2;SDS_P1;SDS_P2;PMS_P1;PMS_P2;Temp;Humidity;BMP_temperature;BMP_pressure;BME280_temperature;BME280_humidity;BME280_pressure;Samples;Min_cycle;Max_cycle;Signal;HPM_P1;HPM_P2
2022/10/21 00:00:31;;;;;;;72.22;38.78;;;;;;;12.62;100.00;100717.66;5092626;28;20039;-49
2022/10/21 00:02:57;;;;;;;66.82;37.50;;;;;;;12.62;100.00;100717.66;5092057;28;20039;-50
2022/10/21 00:05:22;;;;;;;66.15;39.17;;;;;;;12.61;100.00;100711.59;5092717;28;20028;-50
2022/10/21 00:07:47;;;;;;;69.78;40.25;;;;;;;12.62;100.00;100705.56;5092480;28;20517;-49
2022/10/21 00:10:13;;;;;;;71.20;39.88;;;;;;;12.62;100.00;100697.81;5091894;28;20024;-49
2022/10/21 00:12:38;;;;;;;64.78;39.17;;;;;;;12.60;100.00;100696.03;5092272;28;20032;-50
2022/10/21 00:15:09;;;;;;;63.85;40.03;;;;;;;12.60;100.00;100704.69;5091753;28;20020;-48
2022/10/21 00:17:39;;;;;;;65.80;39.78;;;;;;;12.59;100.00;100699.47;5092313;28;20480;-50
2022/10/21 00:20:07;;;;;;;63.95;39.50;;;;;;;12.55;100.00;100711.50;5092634;28;20468;-49
2022/10/21 00:22:33;;;;;;;67.32;38.83;;;;;;;12.57;100.00;100696.84;5091531;28;20532;-48
2022/10/21 00:24:58;;;;;;;67.38;40.15;;;;;;;12.54;100.00;100689.06;5092380;28;20024;-50
2022/10/21 00:27:24;;;;;;;63.88;39.97;;;;;;;12.55;100.00;100684.75;5092425;28;20032;-46
2022/10/21 00:29:49;;;;;;;66.55;38.50;;;;;;;12.43;100.00;100688.84;5091368;28;20552;-50
2022/10/21 00:32:14;;;;;;;62.38;39.45;;;;;;;12.42;100.00;100678.47;5092539;28;20123;-48
2022/10/21 00:34:42;;;;;;;65.85;40.40;;;;;;;12.37;100.00;100675.81;5092306;28;20024;-50
2022/10/21 00:37:08;;;;;;;64.57;39.10;;;;;;;12.28;100.00;100678.22;5091656;28;20025;-50
2022/10/21 00:39:33;;;;;;;70.93;41.20;;;;;;;12.30;100.00;100674.84;5092152;28;20024;-49
2022/10/21 00:41:58;;;;;;;64.35;41.17;;;;;;;12.32;100.00;100682.59;5092055;28;20031;-46
2022/10/21 00:44:25;;;;;;;75.70;42.95;;;;;;;12.32;100.00;100683.47;5094239;28;20536;-48
2022/10/21 00:46:55;;;;;;;75.68;43.13;;;;;;;12.28;100.00;100692.00;5095789;28;20032;-46
2022/10/21 00:49:25;;;;;;;77.90;41.53;;;;;;;12.28;100.00;100697.19;5096005;28;20073;-49
2022/10/21 00:51:54;;;;;;;76.85;42.55;;;;;;;12.32;100.00;100687.78;5094847;28;20072;-49
2022/10/21 00:54:23;;;;;;;73.63;43.97;;;;;;;12.30;100.00;100684.28;5095760;28;20028;-50
2022/10/21 00:56:51;;;;;;;72.40;43.58;;;;;;;12.30;100.00;100684.28;5095697;28;20030;-49
2022/10/21 00:59:17;;;;;;;73.82;43.35;;;;;;;12.31;100.00;100675.69;5095029;28;20028;-48
2022/10/21 01:01:42;;;;;;;76.47;42.90;;;;;;;12.32;100.00;100673.13;5095469;28;20038;-50
2022/10/21 01:04:08;;;;;;;68.82;43.10;;;;;;;12.36;100.00;100668.91;5095368;28;20111;-47
2022/10/21 01:06:34;;;;;;;76.22;42.63;;;;;;;12.36;100.00;100668.91;5094894;28;20036;-48
2022/10/21 01:09:00;;;;;;;75.30;42.40;;;;;;;12.33;100.00;100663.66;5095380;28;20226;-50
2022/10/21 01:11:27;;;;;;;74.18;43.15;;;;;;;12.37;100.00;100659.41;5094710;28;20460;-49
2022/10/21 01:14:22;;;;;;;81.38;43.25;;;;;;;12.34;100.00;100655.06;5095120;28;20028;-48
2022/10/21 01:17:04;;;;;;;69.70;40.30;;;;;;;12.23;100.00;100659.19;5095211;28;20016;-49
2022/10/21 01:19:53;;;;;;;73.40;41.67;;;;;;;12.25;100.00;100652.31;5094810;28;20078;-49
2022/10/21 01:22:31;;;;;;;71.93;41.80;;;;;;;12.18;100.00;100649.59;5095488;28;20063;-49
2022/10/21 01:25:33;;;;;;;71.95;40.38;;;;;;;12.14;100.00;100647.81;5095223;28;20519;-50
2022/10/21 01:28:17;;;;;;;70.07;41.70;;;;;;;12.07;100.00;100640.78;5095315;28;20035;-49
2022/10/21 01:30:52;;;;;;;80.13;41.20;;;;;;;12.09;100.00;100633.91;5094982;28;20028;-49
2022/10/21 01:33:30;;;;;;;69.50;39.30;;;;;;;11.93;100.00;100627.56;5094365;28;20390;-49
2022/10/21 01:35:56;;;;;;;77.47;42.38;;;;;;;12.06;100.00;100620.06;5094925;28;20036;-50
2022/10/21 01:38:40;;;;;;;82.07;44.92;;;;;;;12.10;100.00;100625.34;5095186;28;20035;-47
2022/10/21 01:41:24;;;;;;;80.03;43.80;;;;;;;12.02;100.00;100621.75;5094344;28;20039;-49
2022/10/21 01:44:04;;;;;;;68.28;39.33;;;;;;;11.95;100.00;100617.25;5094682;28;20067;-49
2022/10/21 01:46:39;;;;;;;81.80;41.22;;;;;;;11.99;100.00;100613.91;5094148;28;20024;-50
2022/10/21 01:49:21;;;;;;;81.55;40.53;;;;;;;11.88;100.00;100611.09;5095324;28;20028;-49
2022/10/21 01:51:46;;;;;;;68.22;39.97;;;;;;;11.82;100.00;100605.78;5094543;28;20024;-49
2022/10/21 01:54:18;;;;;;;68.30;39.88;;;;;;;11.76;100.00;100603.09;5093521;28;20081;-50
2022/10/21 01:56:45;;;;;;;76.05;42.42;;;;;;;11.82;100.00;100591.16;5093616;28;20095;-48
2022/10/21 01:59:13;;;;;;;73.20;42.47;;;;;;;11.75;100.00;100594.47;5094824;28;20031;-49
2022/10/21 02:01:38;;;;;;;;;;;;;;;11.78;100.00;100601.41;5094097;28;20028;-50
2022/10/21 02:04:06;;;;;;;68.88;41.80;;;;;;;11.68;100.00;100592.59;5094684;28;20344;-49
2022/10/21 02:06:31;;;;;;;68.03;40.85;;;;;;;11.61;100.00;100583.00;5094353;28;20040;-49
2022/10/21 02:08:57;;;;;;;68.38;39.20;;;;;;;11.53;100.00;100591.44;5093380;28;20060;-49
2022/10/21 02:11:22;;;;;;;61.85;38.20;;;;;;;11.47;100.00;100575.81;5094213;28;20039;-49
2022/10/21 02:13:57;;;;;;;70.25;41.30;;;;;;;11.57;100.00;100587.22;5094350;28;20032;-49
2022/10/21 02:16:26;;;;;;;77.15;41.53;;;;;;;11.48;100.00;100581.88;5093643;28;20050;-48
2022/10/21 02:18:54;;;;;;;72.35;40.47;;;;;;;11.42;100.00;100582.59;5093922;28;20475;-48
2022/10/21 02:21:22;;;;;;;69.13;40.10;;;;;;;11.38;100.00;100573.03;5094213;28;20074;-47
2022/10/21 02:23:58;;;;;;;79.75;42.90;;;;;;;11.43;100.00;100571.44;5092978;28;20047;-49
2022/10/21 02:26:25;;;;;;;78.88;43.28;;;;;;;11.41;100.00;100562.78;5094164;28;20047;-49
2022/10/21 02:28:52;;;;;;;73.72;41.63;;;;;;;11.36;100.00;100565.28;5093062;28;20066;-50
2022/10/21 02:31:49;;;;;;;77.15;40.88;;;;;;;11.28;100.00;100569.38;5094081;28;20035;-49
2022/10/21 02:34:26;;;;;;;68.43;38.38;;;;;;;11.22;100.00;100568.38;5094003;28;20035;-50
2022/10/21 02:37:00;;;;;;;74.07;37.83;;;;;;;11.09;100.00;100573.28;5093094;28;20024;-49
2022/10/21 02:39:35;;;;;;;74.28;37.97;;;;;;;11.01;100.00;100582.50;5093963;28;20024;-49
2022/10/21 02:42:04;;;;;;;82.57;43.20;;;;;;;11.16;100.00;100585.44;5093580;28;20040;-50
2022/10/21 02:44:30;;;;;;;83.43;43.65;;;;;;;11.14;100.00;100570.78;5092971;28;20032;-49
2022/10/21 02:46:55;;;;;;;88.28;45.55;;;;;;;11.22;100.00;100578.69;5093892;28;20073;-49
2022/10/21 02:49:20;;;;;;;96.72;46.50;;;;;;;11.25;100.00;100578.78;5093893;28;20031;-50
2022/10/21 02:51:45;;;;;;;84.03;46.42;;;;;;;11.30;100.00;100580.59;5092687;28;20031;-50
2022/10/21 02:54:11;;;;;;;81.38;45.05;;;;;;;11.30;100.00;100574.59;5093727;28;20428;-49
2022/10/21 02:56:36;;;;;;;80.13;42.92;;;;;;;11.20;100.00;100569.19;5093343;28;20023;-49
2022/10/21 02:59:02;;;;;;;95.93;47.55;;;;;;;11.33;100.00;100562.59;5092702;28;20471;-49
2022/10/21 03:01:27;;;;;;;92.72;46.65;;;;;;;11.36;100.00;100554.06;5093351;28;20032;-49
2022/10/21 03:03:52;;;;;;;83.35;45.08;;;;;;;11.33;100.00;100548.84;5092531;28;20028;-50
2022/10/21 03:06:18;;;;;;;90.82;45.65;;;;;;;11.39;100.00;100550.69;5093139;28;20028;-47
2022/10/21 03:08:43;;;;;;;77.43;42.38;;;;;;;11.26;100.00;100557.28;5093173;28;20560;-49
2022/10/21 03:11:09;;;;;;;71.88;40.75;;;;;;;11.20;100.00;100550.28;5092895;28;20031;-49
2022/10/21 03:13:34;;;;;;;71.80;39.50;;;;;;;11.15;100.00;100547.59;5093144;28;20545;-50
2022/10/21 03:15:59;;;;;;;76.60;40.38;;;;;;;11.15;100.00;100557.06;5093140;28;20433;-49
2022/10/21 03:18:25;;;;;;;85.95;43.38;;;;;;;11.14;100.00;100548.44;5092633;28;20537;-49
2022/10/21 03:20:50;;;;;;;84.18;43.20;;;;;;;11.15;100.00;100544.16;5093106;28;20028;-48
2022/10/21 03:23:19;;;;;;;78.57;40.30;;;;;;;11.10;100.00;100541.47;5093197;28;20020;-49
2022/10/21 03:25:45;;;;;;;81.65;42.58;;;;;;;11.08;100.00;100553.47;5092056;28;20028;-50
2022/10/21 03:28:11;;;;;;;94.45;42.83;;;;;;;11.05;100.00;100558.53;5093231;28;20071;-49
2022/10/21 03:30:36;;;;;;;74.03;41.10;;;;;;;10.97;100.00;100557.50;5092691;28;20050;-45
2022/10/21 03:33:02;;;;;;;74.85;41.85;;;;;;;10.96;100.00;100550.59;5092290;28;20023;-47
2022/10/21 03:35:27;;;;;;;71.05;39.58;;;;;;;10.98;100.00;100552.38;5093134;28;20038;-49
2022/10/21 03:37:53;;;;;;;74.93;41.22;;;;;;;11.00;100.00;100558.44;5092932;28;20048;-50
2022/10/21 03:40:18;;;;;;;80.47;40.53;;;;;;;11.02;100.00;100558.47;5092181;28;20357;-49
2022/10/21 03:42:43;;;;;;;75.65;38.88;;;;;;;10.99;100.00;100561.00;5092538;28;20040;-49
2022/10/21 03:45:09;;;;;;;65.90;37.20;;;;;;;11.02;100.00;100561.06;5092818;28;20428;-49
2022/10/21 03:47:35;;;;;;;76.63;38.05;;;;;;;11.06;100.00;100552.53;5092166;28;20073;-50
2022/10/21 03:50:00;;;;;;;70.32;37.10;;;;;;;11.00;100.00;100552.41;5092720;28;20024;-49
2022/10/21 03:52:25;;;;;;;72.13;37.17;;;;;;;11.02;100.00;100545.59;5092967;28;20502;-49
2022/10/21 03:54:51;;;;;;;54.08;33.05;;;;;;;10.86;100.00;100539.22;5091842;28;20024;-49
2022/10/21 03:57:16;;;;;;;68.20;35.33;;;;;;;11.02;100.00;100548.16;5092814;28;20035;-49
2022/10/21 03:59:41;;;;;;;74.82;35.20;;;;;;;11.02;100.00;100550.75;5092447;28;20090;-50
2022/10/21 04:02:07;;;;;;;60.92;33.17;;;;;;;11.02;100.00;100536.13;5091815;28;20085;-49
2022/10/21 04:04:32;;;;;;;64.22;34.03;;;;;;;11.07;100.00;100535.38;5092812;28;20028;-49
2022/10/21 04:06:57;;;;;;;59.30;33.10;;;;;;;10.98;100.00;100546.34;5092757;28;20063;-49
2022/10/21 04:09:23;;;;;;;66.00;31.45;;;;;;;11.03;100.00;100542.19;5091878;28;20113;-48
2022/10/21 04:11:48;;;;;;;66.30;32.92;;;;;;;11.02;100.00;100543.00;5092470;28;20020;-48
2022/10/21 04:14:13;;;;;;;55.47;30.95;;;;;;;10.85;100.00;100543.47;5091827;28;20165;-49
2022/10/21 04:16:38;;;;;;;51.88;30.13;;;;;;;10.95;100.00;100541.09;5092577;28;20027;-49
2022/10/21 04:19:04;;;;;;;44.00;27.85;;;;;;;10.82;100.00;100553.72;5094810;28;20085;-49
2022/10/21 04:21:29;;;;;;;55.47;28.63;;;;;;;10.87;100.00;100552.13;5095893;28;20414;-48
2022/10/21 04:23:54;;;;;;;51.15;27.70;;;;;;;10.79;100.00;100548.47;5096374;28;20032;-49
2022/10/21 04:26:19;;;;;;;50.50;26.73;;;;;;;10.62;100.00;100548.06;5096360;28;20036;-49
2022/10/21 04:28:45;;;;;;;52.78;29.05;;;;;;;10.74;100.00;100546.63;5095770;28;20039;-49
2022/10/21 04:31:10;;;;;;;45.15;28.25;;;;;;;10.66;100.00;100546.47;5096564;28;20509;-48
2022/10/21 04:33:35;;;;;;;50.33;26.92;;;;;;;10.56;100.00;100534.19;5096300;28;20028;-47
2022/10/21 04:36:01;;;;;;;46.90;26.02;;;;;;;10.50;100.00;100540.94;5095420;28;20046;-49
2022/10/21 04:38:27;;;;;;;55.72;28.38;;;;;;;10.43;100.00;100554.50;5096313;28;20074;-49
2022/10/21 04:41:00;;;;;;;53.28;27.23;;;;;;;10.41;100.00;100563.03;5095907;28;20066;-49
2022/10/21 04:43:26;;;;;;;56.08;27.42;;;;;;;10.42;100.00;100552.75;5094948;28;20098;-49
2022/10/21 04:45:52;;;;;;;51.60;29.17;;;;;;;10.48;100.00;100555.50;5095653;28;20031;-48
2022/10/21 04:48:17;;;;;;;55.92;30.85;;;;;;;10.60;100.00;100548.88;5096084;28;20025;-49
2022/10/21 04:50:43;;;;;;;60.33;31.13;;;;;;;10.58;100.00;100553.13;5094942;28;20026;-48
2022/10/21 04:53:08;;;;;;;51.33;29.77;;;;;;;10.60;100.00;100546.31;5095927;28;20459;-48
2022/10/21 04:55:33;;;;;;;52.42;30.27;;;;;;;10.63;100.00;100546.41;5095756;28;20104;-49
2022/10/21 04:57:59;;;;;;;56.75;29.63;;;;;;;10.65;100.00;100555.91;5094865;28;20407;-49
2022/10/21 05:00:24;;;;;;;50.00;27.75;;;;;;;10.62;100.00;100544.66;5095999;28;20020;-49
2022/10/21 05:02:49;;;;;;;51.47;26.50;;;;;;;10.61;100.00;100537.75;5095463;28;20032;-49
2022/10/21 05:05:15;;;;;;;51.35;26.05;;;;;;;10.69;100.00;100546.53;5094912;28;20464;-49
2022/10/21 05:07:40;;;;;;;55.33;27.50;;;;;;;10.67;100.00;100550.78;5095400;28;20107;-48
2022/10/21 05:10:06;;;;;;;48.83;26.17;;;;;;;10.54;100.00;100550.47;5095590;28;20498;-48
2022/10/21 05:12:31;;;;;;;48.33;27.55;;;;;;;10.61;100.00;100542.91;5094481;28;20035;-48
2022/10/21 05:14:56;;;;;;;52.13;25.83;;;;;;;10.63;100.00;100546.41;5095590;28;20098;-50
2022/10/21 05:17:21;;;;;;;54.90;27.80;;;;;;;10.68;100.00;100539.66;5094841;28;20476;-45
2022/10/21 05:19:47;;;;;;;48.38;27.17;;;;;;;10.71;100.00;100543.16;5095046;28;20116;-48
2022/10/21 05:22:12;;;;;;;48.45;26.27;;;;;;;10.69;100.00;100546.53;5095546;28;20490;-49
2022/10/21 05:24:37;;;;;;;47.97;26.05;;;;;;;10.71;100.00;100547.44;5094310;28;20034;-48
2022/10/21 05:27:02;;;;;;;47.75;25.40;;;;;;;10.67;100.00;100541.34;5095176;28;20024;-48
2022/10/21 05:29:28;;;;;;;41.35;23.65;;;;;;;10.62;100.00;100534.34;5094944;28;20035;-48
2022/10/21 05:31:53;;;;;;;39.00;23.67;;;;;;;10.52;100.00;100531.53;5094319;28;20035;-50
2022/10/21 05:34:18;;;;;;;43.53;22.52;;;;;;;10.50;100.00;100525.47;5095236;28;20087;-48
2022/10/21 05:36:44;;;;;;;40.47;22.05;;;;;;;10.41;100.00;100525.25;5094804;28;20038;-48
2022/10/21 05:39:10;;;;;;;39.70;22.00;;;;;;;10.36;100.00;100522.53;5094301;28;20040;-49
2022/10/21 05:41:36;;;;;;;44.65;21.67;;;;;;;10.33;100.00;100522.44;5094772;28;20024;-49
2022/10/21 05:44:02;;;;;;;46.28;21.85;;;;;;;10.26;100.00;100515.38;5095037;28;20043;-49
2022/10/21 05:46:27;;;;;;;47.83;23.98;;;;;;;10.29;100.00;100517.16;5094390;28;20043;-49
2022/10/21 05:48:52;;;;;;;41.63;22.15;;;;;;;10.25;100.00;100516.22;5094532;28;20028;-50
2022/10/21 05:51:24;;;;;;;48.10;24.95;;;;;;;10.42;100.00;100511.53;5094834;28;20060;-49
2022/10/21 05:53:49;;;;;;;49.13;26.02;;;;;;;10.38;100.00;100504.56;5093808;28;20028;-48
2022/10/21 05:56:14;;;;;;;49.63;23.95;;;;;;;10.31;100.00;100500.06;5094637;28;20049;-49
2022/10/21 05:58:40;;;;;;;42.35;22.80;;;;;;;10.29;100.00;100504.28;5094524;28;20092;-49
2022/10/21 06:01:05;;;;;;;42.53;22.77;;;;;;;10.28;100.00;100511.16;5093927;28;20460;-48
2022/10/21 06:03:32;;;;;;;41.70;22.88;;;;;;;10.25;100.00;100502.47;5094369;28;20031;-47
2022/10/21 06:05:58;;;;;;;47.22;23.00;;;;;;;10.25;100.00;100518.81;5094282;28;20032;-50
2022/10/21 06:08:24;;;;;;;45.15;23.95;;;;;;;10.37;100.00;100506.25;5093644;28;20035;-49
2022/10/21 06:10:58;;;;;;;45.13;23.52;;;;;;;10.30;100.00;100511.19;5094066;28;20024;-49
2022/10/21 06:13:24;;;;;;;49.53;24.23;;;;;;;10.28;100.00;100511.16;5094455;28;20020;-46
2022/10/21 06:15:49;;;;;;;38.95;22.20;;;;;;;10.21;100.00;100510.13;5093412;28;20566;-50
2022/10/21 06:18:14;;;;;;;47.70;23.85;;;;;;;10.19;100.00;100503.19;5094376;28;20054;-50
2022/10/21 06:20:39;;;;;;;49.50;26.60;;;;;;;10.19;100.00;100504.06;5093177;28;20069;-47
2022/10/21 06:23:05;;;;;;;44.08;23.15;;;;;;;10.20;100.00;100500.66;5094068;28;20502;-49
2022/10/21 06:25:30;;;;;;;94.45;59.55;;;;;;;10.18;100.00;100502.31;5093843;28;20028;-45
2022/10/21 06:27:55;;;;;;;60.13;35.95;;;;;;;10.20;100.00;100500.66;5093389;28;20466;-50
2022/10/21 06:30:21;;;;;;;48.80;25.92;;;;;;;10.28;100.00;100502.56;5093910;28;20024;-50
2022/10/21 06:32:47;;;;;;;52.85;25.98;;;;;;;10.20;100.00;100507.53;5093817;28;20066;-49
2022/10/21 06:35:12;;;;;;;46.53;23.48;;;;;;;10.26;100.00;100509.38;5093113;28;20036;-49
2022/10/21 06:37:37;;;;;;;52.38;25.45;;;;;;;10.23;100.00;100510.16;5093663;28;20505;-50
2022/10/21 06:40:03;;;;;;;45.25;23.92;;;;;;;10.34;100.00;100507.84;5093751;28;20069;-48
2022/10/21 06:42:29;;;;;;;47.03;25.83;;;;;;;10.42;100.00;100501.22;5092240;28;20071;-48
2022/10/21 06:44:54;;;;;;;47.13;23.60;;;;;;;10.36;100.00;100519.09;5093625;28;20031;-47
2022/10/21 06:47:19;;;;;;;44.00;23.55;;;;;;;10.41;100.00;100519.22;5093571;28;20059;-49
2022/10/21 06:49:45;;;;;;;47.50;24.58;;;;;;;10.40;100.00;100531.22;5092628;28;20471;-49
2022/10/21 06:52:10;;;;;;;46.55;23.38;;;;;;;10.44;100.00;100535.59;5093552;28;20030;-49
2022/10/21 06:54:35;;;;;;;43.35;23.52;;;;;;;10.52;100.00;100536.69;5093343;28;20032;-48
2022/10/21 06:57:02;;;;;;;43.97;23.13;;;;;;;10.60;100.00;100536.00;5092843;28;20032;-47
2022/10/21 06:59:27;;;;;;;47.17;24.05;;;;;;;10.64;100.00;100548.13;5093734;28;20063;-49
2022/10/21 07:01:52;;;;;;;46.00;23.42;;;;;;;10.71;100.00;100550.03;5093330;28;20047;-48
2022/10/21 07:04:17;;;;;;;40.58;22.85;;;;;;;10.80;100.00;100560.53;5093050;28;20024;-48
2022/10/21 07:06:44;;;;;;;37.75;21.85;;;;;;;10.85;100.00;100558.94;5093145;28;20024;-49
2022/10/21 07:09:10;;;;;;;51.63;22.13;;;;;;;10.92;100.00;100570.28;5093301;28;20028;-49
2022/10/21 07:11:35;;;;;;;41.92;22.95;;;;;;;10.98;100.00;100569.56;5092305;28;20037;-49
2022/10/21 07:14:01;;;;;;;38.58;21.48;;;;;;;11.04;100.00;100569.72;5093259;28;20031;-48
2022/10/21 07:16:32;;;;;;;39.85;20.25;;;;;;;11.08;100.00;100579.25;5093329;28;20024;-50
2022/10/21 07:18:57;;;;;;;38.20;20.13;;;;;;;11.16;100.00;100582.88;5092361;28;20034;-49
2022/10/21 07:21:27;;;;;;;36.65;20.40;;;;;;;11.22;100.00;100583.84;5093031;28;20031;-49
2022/10/21 07:23:54;;;;;;;33.08;18.17;;;;;;;11.28;100.00;100584.00;5092705;28;20023;-50
2022/10/21 07:26:21;;;;;;;36.47;18.63;;;;;;;11.35;100.00;100578.16;5092319;28;20439;-49
2022/10/21 07:28:47;;;;;;;34.22;17.30;;;;;;;11.37;100.00;100579.03;5092983;28;20078;-50
2022/10/21 07:31:21;;;;;;;39.95;17.42;;;;;;;11.42;100.00;100577.41;5092415;28;20402;-50
2022/10/21 07:33:47;;;;;;;31.13;16.90;;;;;;;11.50;100.00;100586.22;5092827;28;20020;-49
2022/10/21 07:36:22;;;;;;;34.33;16.75;;;;;;;11.57;100.00;100587.22;5092926;28;20039;-50
2022/10/21 07:38:49;;;;;;;32.95;17.52;;;;;;;11.63;100.00;100589.94;5092031;28;20077;-51
2022/10/21 07:41:15;;;;;;;34.17;18.00;;;;;;;11.70;100.00;100584.03;5093068;28;20043;-51
2022/10/21 07:43:41;;;;;;;28.25;17.05;;;;;;;11.77;100.00;100584.19;5092468;28;20092;-49
2022/10/21 07:46:06;;;;;;;34.00;17.48;;;;;;;11.84;100.00;100593.81;5091996;28;20111;-50
2022/10/21 07:48:31;;;;;;;32.63;18.55;;;;;;;11.90;100.00;100595.63;5092799;28;20429;-49
2022/10/21 07:51:08;;;;;;;32.30;17.23;;;;;;;11.94;100.00;100593.16;5092706;28;20020;-50
2022/10/21 07:53:33;;;;;;;38.08;18.20;;;;;;;12.02;100.00;100596.78;5093090;28;20047;-49
2022/10/21 07:56:09;;;;;;;32.30;18.08;;;;;;;12.01;100.00;100600.19;5096839;28;20063;-49
2022/10/21 07:58:34;;;;;;;32.28;18.00;;;;;;;12.06;100.00;100595.13;5096728;28;20490;-49
2022/10/21 08:01:01;;;;;;;35.53;19.33;;;;;;;12.15;100.00;100603.03;5095927;28;20032;-50
2022/10/21 08:03:27;;;;;;;37.08;19.90;;;;;;;12.15;100.00;100608.22;5096773;28;20027;-50
2022/10/21 08:05:53;;;;;;;37.75;19.85;;;;;;;12.21;100.00;100596.25;5096717;28;20045;-50
2022/10/21 08:08:20;;;;;;;40.65;20.15;;;;;;;12.25;100.00;100592.88;5096102;28;20034;-51
2022/10/21 08:10:46;;;;;;;34.33;20.08;;;;;;;12.30;100.00;100601.59;5096467;28;20065;-50
2022/10/21 08:13:11;;;;;;;39.72;20.73;;;;;;;12.30;100.00;100594.72;5096155;28;20451;-46
2022/10/21 08:15:41;;;;;;;36.92;19.70;;;;;;;12.31;100.00;100590.41;5096420;28;20024;-50
2022/10/21 08:18:06;;;;;;;38.20;19.40;;;;;;;12.31;100.00;100590.41;5096613;28;20023;-50
2022/10/21 08:20:31;;;;;;;30.75;18.92;;;;;;;12.31;100.00;100595.59;5095791;28;20358;-50
2022/10/21 08:22:56;;;;;;;32.35;18.98;;;;;;;12.29;100.00;100584.34;5096852;28;20028;-51
2022/10/21 08:25:22;;;;;;;32.65;19.42;;;;;;;12.29;100.00;100580.06;5096267;28;20356;-49
2022/10/21 08:27:47;;;;;;;30.98;18.40;;;;;;;12.27;100.00;100584.31;5095395;28;20019;-51
2022/10/21 08:30:14;;;;;;;33.60;20.38;;;;;;;12.28;100.00;100590.38;5096306;28;20107;-47
2022/10/21 08:32:39;;;;;;;35.03;19.80;;;;;;;12.24;100.00;100596.28;5095905;28;20104;-50
2022/10/21 08:35:05;;;;;;;37.03;21.77;;;;;;;12.25;100.00;100598.94;5095400;28;20115;-49
2022/10/21 08:37:31;;;;;;;36.53;21.75;;;;;;;12.24;100.00;100607.53;5096335;28;20479;-44
2022/10/21 08:39:56;;;;;;;37.05;21.67;;;;;;;12.23;100.00;100603.19;5096205;28;20020;-48
2022/10/21 08:42:22;;;;;;;39.25;22.17;;;;;;;12.24;100.00;100604.06;5095165;28;20094;-49
2022/10/21 08:44:50;;;;;;;37.88;22.77;;;;;;;12.24;100.00;100612.69;5095819;28;20024;-48
2022/10/21 08:47:38;;;;;;;40.88;24.05;;;;;;;12.25;100.00;100603.22;5095870;28;20387;-49
2022/10/21 08:50:20;;;;;;;44.58;22.70;;;;;;;12.29;100.00;100615.34;5095321;28;20024;-49
2022/10/21 08:52:58;;;;;;;41.00;22.90;;;;;;;12.29;100.00;100625.69;5095824;28;20106;-49
2022/10/21 08:55:35;;;;;;;39.28;22.25;;;;;;;12.34;100.00;100626.63;5095083;28;20386;-47
2022/10/21 08:58:02;;;;;;;44.70;24.75;;;;;;;12.39;100.00;100632.75;5096048;28;20036;-49
2022/10/21 09:00:40;;;;;;;41.25;22.33;;;;;;;12.42;100.00;100617.34;5095868;28;20025;-49
2022/10/21 09:03:31;;;;;;;40.17;21.40;;;;;;;12.51;100.00;100620.06;5094983;28;20024;-48
2022/10/21 09:06:14;;;;;;;34.50;22.05;;;;;;;12.58;100.00;100621.06;5063588;28;20479;-50
2022/10/21 09:08:54;;;;;;;44.92;22.25;;;;;;;12.61;100.00;100634.03;5095560;28;20103;-46
2022/10/21 09:11:53;;;;;;;34.25;20.95;;;;;;;12.65;100.00;100640.13;5094879;28;20020;-49
2022/10/21 09:15:05;;;;;;;36.47;21.88;;;;;;;12.67;100.00;100648.78;5095481;28;20030;-48
2022/10/21 09:17:52;;;;;;;41.58;20.05;;;;;;;12.67;100.00;100636.72;5012335;28;20136;-49
2022/10/21 09:20:57;;;;;;;42.92;20.65;;;;;;;12.71;100.00;100634.22;5089842;28;20513;-49
2022/10/21 09:23:47;;;;;;;41.08;19.27;;;;;;;12.74;100.00;100631.66;5095445;28;20028;-50
2022/10/21 09:26:25;;;;;;;30.50;15.95;;;;;;;12.81;100.00;100620.59;5095149;28;20050;-48
2022/10/21 09:28:50;;;;;;;29.75;14.70;;;;;;;12.88;100.00;100619.81;5094928;28;20051;-49
2022/10/21 09:31:19;;;;;;;24.63;13.60;;;;;;;12.92;100.00;100628.50;5094293;28;20024;-50
2022/10/21 09:33:51;;;;;;;23.73;11.88;;;;;;;13.00;100.00;100622.63;5094933;28;20020;-46
2022/10/21 09:36:38;;;;;;;17.00;9.75;;;;;;;13.09;100.00;100605.50;5095243;28;20024;-49
2022/10/21 09:39:22;;;;;;;18.08;8.52;;;;;;;13.20;100.00;100608.25;5094292;28;20106;-49
2022/10/21 09:41:56;;;;;;;18.80;7.78;;;;;;;13.31;100.00;100617.03;5094912;28;20024;-49
2022/10/21 09:44:22;;;;;;;17.80;7.95;;;;;;;13.45;100.00;100614.69;5094753;28;20059;-48
2022/10/21 09:46:49;;;;;;;17.30;7.95;;;;;;;13.49;100.00;100607.00;5093873;28;20033;-48
2022/10/21 09:49:30;;;;;;;18.08;7.43;;;;;;;13.60;100.00;100609.72;5094851;28;20024;-50
2022/10/21 09:51:58;;;;;;;18.33;8.32;;;;;;;13.75;100.00;100601.28;5094012;28;20077;-49
2022/10/21 09:54:27;;;;;;;13.13;7.32;;;;;;;13.87;100.00;100602.28;5094897;28;20034;-49
2022/10/21 09:57:04;;;;;;;13.23;7.20;;;;;;;13.89;100.00;100605.75;5094511;28;20016;-50
2022/10/21 09:59:31;;;;;;;18.60;6.72;;;;;;;13.98;100.00;100608.44;5093962;28;20028;-48
2022/10/21 10:02:04;;;;;;;;;;;;;;;14.09;100.00;100604.25;5094981;28;20073;-49
2022/10/21 10:04:32;;;;;;;15.88;6.72;;;;;;;14.27;100.00;100608.78;5094746;28;19934;-49
2022/10/21 10:07:19;;;;;;;17.00;6.88;;;;;;;14.32;100.00;100621.81;5093432;28;20592;-49
2022/10/21 10:09:46;;;;;;;13.40;6.07;;;;;;;14.35;100.00;100621.81;5094141;28;20036;-46
2022/10/21 10:12:14;;;;;;;12.45;6.60;;;;;;;14.41;100.00;100619.31;5094354;28;20024;-48
2022/10/21 10:14:42;;;;;;;13.98;6.57;;;;;;;14.48;100.00;100623.69;5093161;28;20024;-49
2022/10/21 10:17:30;;;;;;;17.15;6.93;;;;;;;14.54;100.00;100619.41;5093523;28;20028;-50
2022/10/21 10:20:04;;;;;;;16.60;6.57;;;;;;;14.59;100.00;100630.69;5093481;28;20016;-49
2022/10/21 10:22:30;;;;;;;14.80;6.13;;;;;;;14.69;100.00;100632.53;5094182;28;20396;-46
2022/10/21 10:25:08;;;;;;;16.77;6.05;;;;;;;14.78;100.00;100642.16;5093982;28;20589;-49
2022/10/21 10:27:35;;;;;;;14.60;7.00;;;;;;;14.88;100.00;100638.78;5093185;28;20115;-49
2022/10/21 10:30:01;;;;;;;16.20;7.78;;;;;;;14.99;100.00;100636.28;5094093;28;20047;-49
2022/10/21 10:32:33;;;;;;;14.35;7.53;;;;;;;15.12;100.00;100638.09;5094085;28;20032;-48
2022/10/21 10:35:06;;;;;;;20.77;7.53;;;;;;;15.34;100.00;100635.66;5093099;28;20046;-49
2022/10/21 10:37:35;;;;;;;19.88;7.88;;;;;;;15.62;100.00;100633.22;5093574;28;20471;-49
2022/10/21 10:40:06;;;;;;;22.42;8.98;;;;;;;15.77;100.00;100641.09;5093945;28;20102;-49
2022/10/21 10:42:41;;;;;;;16.25;7.50;;;;;;;15.87;100.00;100635.97;5092605;28;20044;-49
2022/10/21 10:45:14;;;;;;;15.68;7.78;;;;;;;15.93;100.00;100636.88;5093817;28;20031;-50
2022/10/21 10:47:52;;;;;;;21.10;7.97;;;;;;;16.06;100.00;100643.00;5093331;28;20020;-49
2022/10/21 10:50:36;;;;;;;18.25;7.88;;;;;;;16.25;100.00;100646.50;5093436;28;20051;-50
2022/10/21 10:53:24;;;;;;;19.38;8.05;;;;;;;16.41;100.00;100638.75;5093681;28;20028;-47
2022/10/21 10:55:59;;;;;;;17.67;7.93;;;;;;;16.49;100.00;100639.66;5092576;28;20098;-50
2022/10/21 10:58:28;;;;;;;18.65;7.78;;;;;;;16.56;100.00;100640.53;5093476;28;20133;-49
2022/10/21 11:00:58;;;;;;;22.38;7.38;;;;;;;16.69;100.00;100637.06;5093371;28;20039;-49
2022/10/21 11:03:36;;;;;;;16.92;7.00;;;;;;;16.91;100.00;100643.19;5092605;28;20360;-49
2022/10/21 11:06:14;;;;;;;13.57;6.03;;;;;;;17.28;100.00;100639.69;5093290;28;20120;-50
2022/10/21 11:08:59;;;;;;;15.73;5.75;;;;;;;17.49;99.91;100628.34;5093118;28;20056;-49
2022/10/21 11:11:31;;;;;;;16.83;6.25;;;;;;;17.52;96.21;100624.88;5092893;28;20038;-48
2022/10/21 11:13:57;;;;;;;17.77;7.25;;;;;;;17.84;97.26;100623.91;5093269;28;20055;-49